sensor_id;sensor_type;location;lat;lon;timestamp;pressure;altitude;pressure_sealevel;temperature;humidity
3260;BME280;22469;48.150;14.004;2022-11-22T00:00:42;96351.91;;;5.50;69.56
3260;BME280;22469;48.150;14.004;2022-11-22T00:03:09;96346.13;;;5.46;69.19
3260;BME280;22469;48.150;14.004;2022-11-22T00:05:37;96337.78;;;5.43;69.38
3260;BME280;22469;48.150;14.004;2022-11-22T00:08:04;96337.03;;;5.41;69.78
3260;BME280;22469;48.150;14.004;2022-11-22T00:10:32;96318.47;;;5.39;69.52
3260;BME280;22469;48.150;14.004;2022-11-22T00:12:59;96312.63;;;5.37;70.09
3260;BME280;22469;48.150;14.004;2022-11-22T00:15:26;96310.09;;;5.37;69.69
3260;BME280;22469;48.150;14.004;2022-11-22T00:17:53;96299.03;;;5.38;69.69
3260;BME280;22469;48.150;14.004;2022-11-22T00:20:21;96300.78;;;5.36;69.71
3260;BME280;22469;48.150;14.004;2022-11-22T00:22:48;96299.25;;;5.32;70.21
3260;BME280;22469;48.150;14.004;2022-11-22T00:25:15;96291.63;;;5.32;69.66
3260;BME280;22469;48.150;14.004;2022-11-22T00:27:42;96294.19;;;5.32;69.90
3260;BME280;22469;48.150;14.004;2022-11-22T00:30:09;96291.03;;;5.25;69.58
3260;BME280;22469;48.150;14.004;2022-11-22T00:32:37;96305.66;;;5.20;69.50
3260;BME280;22469;48.150;14.004;2022-11-22T00:35:04;96302.56;;;5.12;70.00
3260;BME280;22469;48.150;14.004;2022-11-22T00:37:32;96295.88;;;5.09;69.81
3260;BME280;22469;48.150;14.004;2022-11-22T00:39:59;96308.75;;;5.05;69.94
3260;BME280;22469;48.150;14.004;2022-11-22T00:42:26;96311.31;;;5.05;69.62
3260;BME280;22469;48.150;14.004;2022-11-22T00:44:53;96309.66;;;5.04;69.44
3260;BME280;22469;48.150;14.004;2022-11-22T00:47:20;96305.69;;;4.96;69.62
3260;BME280;22469;48.150;14.004;2022-11-22T00:49:47;96312.75;;;4.88;70.05
3260;BME280;22469;48.150;14.004;2022-11-22T00:52:14;96321.34;;;4.86;70.17
3260;BME280;22469;48.150;14.004;2022-11-22T00:54:40;96337.78;;;4.75;70.49
3260;BME280;22469;48.150;14.004;2022-11-22T00:57:07;96337.78;;;4.52;71.62
3260;BME280;22469;48.150;14.004;2022-11-22T00:59:34;96341.97;;;4.53;71.48
3260;BME280;22469;48.150;14.004;2022-11-22T01:02:01;96340.81;;;4.37;71.99
3260;BME280;22469;48.150;14.004;2022-11-22T01:04:28;96349.34;;;4.36;72.02
3260;BME280;22469;48.150;14.004;2022-11-22T01:06:55;96354.25;;;4.40;71.79
3260;BME280;22469;48.150;14.004;2022-11-22T01:09:23;96344.66;;;4.48;71.61
3260;BME280;22469;48.150;14.004;2022-11-22T01:11:51;96343.50;;;4.57;71.72
3260;BME280;22469;48.150;14.004;2022-11-22T01:14:18;96339.09;;;4.62;71.59
3260;BME280;22469;48.150;14.004;2022-11-22T01:16:46;96337.19;;;4.69;71.61
3260;BME280;22469;48.150;14.004;2022-11-22T01:19:13;96326.06;;;4.71;71.45
3260;BME280;22469;48.150;14.004;2022-11-22T01:21:41;96325.91;;;4.76;71.53
3260;BME280;22469;48.150;14.004;2022-11-22T01:24:08;96321.44;;;4.83;71.60
3260;BME280;22469;48.150;14.004;2022-11-22T01:26:35;96324.75;;;4.85;71.88
3260;BME280;22469;48.150;14.004;2022-11-22T01:29:03;96316.13;;;4.89;71.15
3260;BME280;22469;48.150;14.004;2022-11-22T01:31:30;96320.34;;;4.90;71.30
3260;BME280;22469;48.150;14.004;2022-11-22T01:33:58;96317.78;;;4.90;71.17
3260;BME280;22469;48.150;14.004;2022-11-22T01:36:26;96322.19;;;4.85;70.19
3260;BME280;22469;48.150;14.004;2022-11-22T01:38:53;96315.59;;;4.81;70.88
3260;BME280;22469;48.150;14.004;2022-11-22T01:41:21;96312.22;;;4.80;71.43
3260;BME280;22469;48.150;14.004;2022-11-22T01:43:48;96313.94;;;4.80;71.00
3260;BME280;22469;48.150;14.004;2022-11-22T01:46:41;96319.91;;;4.55;71.46
3260;BME280;22469;48.150;14.004;2022-11-22T01:49:17;96311.59;;;4.50;71.42
3260;BME280;22469;48.150;14.004;2022-11-22T01:51:48;96319.84;;;4.57;71.28
3260;BME280;22469;48.150;14.004;2022-11-22T01:54:21;96329.84;;;4.36;71.74
3260;BME280;22469;48.150;14.004;2022-11-22T01:56:54;96330.16;;;4.27;71.72
3260;BME280;22469;48.150;14.004;2022-11-22T01:59:25;96326.13;;;4.21;71.88
3260;BME280;22469;48.150;14.004;2022-11-22T02:01:56;96321.69;;;4.28;71.73
3260;BME280;22469;48.150;14.004;2022-11-22T02:04:26;96318.06;;;4.35;71.64
3260;BME280;22469;48.150;14.004;2022-11-22T02:07:37;96315.56;;;4.34;71.76
3260;BME280;22469;48.150;14.004;2022-11-22T02:09:52;96320.38;;;4.16;72.21
3260;BME280;22469;48.150;14.004;2022-11-22T02:12:23;96327.44;;;4.08;72.41
3260;BME280;22469;48.150;14.004;2022-11-22T02:14:54;96325.72;;;4.09;72.40
3260;BME280;22469;48.150;14.004;2022-11-22T02:17:24;96322.38;;;4.07;72.64
3260;BME280;22469;48.150;14.004;2022-11-22T02:19:52;96315.56;;;4.09;72.50
3260;BME280;22469;48.150;14.004;2022-11-22T02:25:54;96313.09;;;4.07;71.98
3260;BME280;22469;48.150;14.004;2022-11-22T02:28:27;96302.88;;;4.09;71.98
3260;BME280;22469;48.150;14.004;2022-11-22T02:30:56;96308.69;;;4.12;71.87
3260;BME280;22469;48.150;14.004;2022-11-22T02:33:23;96311.31;;;4.09;72.00
3260;BME280;22469;48.150;14.004;2022-11-22T02:35:50;96309.16;;;3.98;72.05
3260;BME280;22469;48.150;14.004;2022-11-22T02:38:27;96309.25;;;3.95;72.48
3260;BME280;22469;48.150;14.004;2022-11-22T02:41:07;96304.97;;;3.97;72.22
3260;BME280;22469;48.150;14.004;2022-11-22T02:43:43;96306.69;;;3.97;72.12
3260;BME280;22469;48.150;14.004;2022-11-22T02:46:14;96306.69;;;3.97;72.28
3260;BME280;22469;48.150;14.004;2022-11-22T02:48:46;96307.41;;;4.00;72.27
3260;BME280;22469;48.150;14.004;2022-11-22T02:51:16;96301.53;;;3.98;72.18
3260;BME280;22469;48.150;14.004;2022-11-22T02:53:47;96295.53;;;4.01;72.06
3260;BME280;22469;48.150;14.004;2022-11-22T02:56:16;96304.81;;;4.02;72.59
3260;BME280;22469;48.150;14.004;2022-11-22T02:58:43;96308.22;;;4.01;72.50
3260;BME280;22469;48.150;14.004;2022-11-22T03:01:11;96310.75;;;4.01;72.27
3260;BME280;22469;48.150;14.004;2022-11-22T03:03:39;96309.09;;;4.00;72.28
3260;BME280;22469;48.150;14.004;2022-11-22T03:06:06;96305.81;;;3.96;72.69
3260;BME280;22469;48.150;14.004;2022-11-22T03:08:33;96318.97;;;3.83;73.29
3260;BME280;22469;48.150;14.004;2022-11-22T03:11:00;96319.22;;;3.75;73.85
3260;BME280;22469;48.150;14.004;2022-11-22T03:13:27;96300.19;;;3.88;73.35
3260;BME280;22469;48.150;14.004;2022-11-22T03:15:54;96314.22;;;3.98;73.31
3260;BME280;22469;48.150;14.004;2022-11-22T03:18:21;96317.22;;;4.10;73.20
3260;BME280;22469;48.150;14.004;2022-11-22T03:20:48;96324.91;;;4.08;73.12
3260;BME280;22469;48.150;14.004;2022-11-22T03:23:15;96327.44;;;4.08;72.86
3260;BME280;22469;48.150;14.004;2022-11-22T03:25:42;96329.25;;;4.04;72.91
3260;BME280;22469;48.150;14.004;2022-11-22T03:28:09;96338.56;;;4.04;72.96
3260;BME280;22469;48.150;14.004;2022-11-22T03:30:40;96338.94;;;3.92;73.59
3260;BME280;22469;48.150;14.004;2022-11-22T03:33:08;96337.41;;;3.88;73.86
3260;BME280;22469;48.150;14.004;2022-11-22T03:35:36;96342.28;;;3.94;73.65
3260;BME280;22469;48.150;14.004;2022-11-22T03:38:03;96341.50;;;3.65;74.72
3260;BME280;22469;48.150;14.004;2022-11-22T03:40:31;96344.66;;;3.72;74.76
3260;BME280;22469;48.150;14.004;2022-11-22T03:42:59;96351.78;;;3.87;74.17
3260;BME280;22469;48.150;14.004;2022-11-22T03:45:28;96351.28;;;3.76;74.57
3260;BME280;22469;48.150;14.004;2022-11-22T03:47:56;96355.41;;;3.80;74.74
3260;BME280;22469;48.150;14.004;2022-11-22T03:50:23;96357.84;;;3.83;74.71
3260;BME280;22469;48.150;14.004;2022-11-22T03:52:50;96347.97;;;4.00;74.09
3260;BME280;22469;48.150;14.004;2022-11-22T03:55:17;96345.00;;;4.14;73.49
3260;BME280;22469;48.150;14.004;2022-11-22T03:57:44;96354.78;;;4.25;73.57
3260;BME280;22469;48.150;14.004;2022-11-22T04:00:12;96342.66;;;4.33;73.17
3260;BME280;22469;48.150;14.004;2022-11-22T04:02:39;96349.16;;;4.40;73.23
3260;BME280;22469;48.150;14.004;2022-11-22T04:05:06;96349.75;;;4.48;72.91
3260;BME280;22469;48.150;14.004;2022-11-22T04:07:34;96352.28;;;4.48;72.88
3260;BME280;22469;48.150;14.004;2022-11-22T04:10:01;96353.03;;;4.50;73.01
3260;BME280;22469;48.150;14.004;2022-11-22T04:12:29;96346.25;;;4.51;72.76
3260;BME280;22469;48.150;14.004;2022-11-22T04:14:56;96333.41;;;4.56;72.62
3260;BME280;22469;48.150;14.004;2022-11-22T04:17:37;96342.56;;;4.60;72.56
3260;BME280;22469;48.150;14.004;2022-11-22T04:20:08;96341.47;;;4.67;72.44
3260;BME280;22469;48.150;14.004;2022-11-22T04:23:11;96331.22;;;4.70;72.53
3260;BME280;22469;48.150;14.004;2022-11-22T04:25:44;96334.47;;;4.73;72.32
3260;BME280;22469;48.150;14.004;2022-11-22T04:28:15;96330.09;;;4.77;72.42
3260;BME280;22469;48.150;14.004;2022-11-22T04:30:43;96341.69;;;4.84;72.26
3260;BME280;22469;48.150;14.004;2022-11-22T04:33:30;96343.41;;;4.84;72.44
3260;BME280;22469;48.150;14.004;2022-11-22T04:35:57;96339.22;;;4.83;72.26
3260;BME280;22469;48.150;14.004;2022-11-22T04:38:24;96331.53;;;4.84;72.18
3260;BME280;22469;48.150;14.004;2022-11-22T04:40:52;96333.06;;;4.88;72.17
3260;BME280;22469;48.150;14.004;2022-11-22T04:43:27;96333.75;;;4.93;72.14
3260;BME280;22469;48.150;14.004;2022-11-22T04:46:14;96340.47;;;4.94;72.19
3260;BME280;22469;48.150;14.004;2022-11-22T04:48:41;96342.97;;;4.96;72.22
3260;BME280;22469;48.150;14.004;2022-11-22T04:51:13;96344.50;;;5.00;72.36
3260;BME280;22469;48.150;14.004;2022-11-22T04:53:58;96344.44;;;5.02;72.29
3260;BME280;22469;48.150;14.004;2022-11-22T04:56:25;96362.13;;;5.05;72.36
3260;BME280;22469;48.150;14.004;2022-11-22T04:58:53;96358.75;;;5.04;72.22
3260;BME280;22469;48.150;14.004;2022-11-22T05:01:20;96362.94;;;5.05;72.12
3260;BME280;22469;48.150;14.004;2022-11-22T05:03:47;96361.19;;;5.07;71.85
3260;BME280;22469;48.150;14.004;2022-11-22T05:06:14;96367.16;;;5.06;71.94
3260;BME280;22469;48.150;14.004;2022-11-22T05:08:42;96373.06;;;5.07;71.91
3260;BME280;22469;48.150;14.004;2022-11-22T05:11:09;96371.25;;;5.10;71.72
3260;BME280;22469;48.150;14.004;2022-11-22T05:13:38;96378.78;;;5.12;71.81
3260;BME280;22469;48.150;14.004;2022-11-22T05:16:13;96377.06;;;5.12;71.73
3260;BME280;22469;48.150;14.004;2022-11-22T05:18:43;96378.75;;;5.13;71.48
3260;BME280;22469;48.150;14.004;2022-11-22T05:21:26;96383.94;;;5.10;71.18
3260;BME280;22469;48.150;14.004;2022-11-22T05:23:54;96389.06;;;5.09;71.23
3260;BME280;22469;48.150;14.004;2022-11-22T05:26:33;96379.63;;;5.12;71.52
3260;BME280;22469;48.150;14.004;2022-11-22T05:29:06;96386.38;;;5.13;71.62
3260;BME280;22469;48.150;14.004;2022-11-22T05:31:37;96386.25;;;5.16;71.55
3260;BME280;22469;48.150;14.004;2022-11-22T05:34:05;96393.81;;;5.18;71.50
3260;BME280;22469;48.150;14.004;2022-11-22T05:36:33;96399.72;;;5.18;71.26
3260;BME280;22469;48.150;14.004;2022-11-22T05:39:01;96396.34;;;5.18;71.01
3260;BME280;22469;48.150;14.004;2022-11-22T05:41:29;96400.44;;;5.22;71.38
3260;BME280;22469;48.150;14.004;2022-11-22T05:43:56;96390.16;;;5.25;71.27
3260;BME280;22469;48.150;14.004;2022-11-22T05:46:26;96386.72;;;5.26;71.23
3260;BME280;22469;48.150;14.004;2022-11-22T05:48:56;96391.78;;;5.28;70.97
3260;BME280;22469;48.150;14.004;2022-11-22T05:51:26;96398.47;;;5.30;70.99
3260;BME280;22469;48.150;14.004;2022-11-22T05:54:00;96408.66;;;5.29;70.52
3260;BME280;22469;48.150;14.004;2022-11-22T05:56:27;96419.00;;;5.24;70.73
3260;BME280;22469;48.150;14.004;2022-11-22T05:58:54;96432.47;;;5.26;70.46
3260;BME280;22469;48.150;14.004;2022-11-22T06:01:22;96436.59;;;5.30;71.17
3260;BME280;22469;48.150;14.004;2022-11-22T06:03:50;96438.44;;;5.25;70.59
3260;BME280;22469;48.150;14.004;2022-11-22T06:06:18;96442.63;;;5.26;70.41
3260;BME280;22469;48.150;14.004;2022-11-22T06:08:46;96451.06;;;5.28;70.63
3260;BME280;22469;48.150;14.004;2022-11-22T06:11:24;96446.78;;;5.29;70.71
3260;BME280;22469;48.150;14.004;2022-11-22T06:13:55;96456.19;;;5.27;70.53
3260;BME280;22469;48.150;14.004;2022-11-22T06:16:24;96463.03;;;5.25;70.60
3260;BME280;22469;48.150;14.004;2022-11-22T06:18:52;96463.75;;;5.28;70.64
3260;BME280;22469;48.150;14.004;2022-11-22T06:21:21;96467.94;;;5.29;70.71
3260;BME280;22469;48.150;14.004;2022-11-22T06:23:53;96465.41;;;5.29;70.51
3260;BME280;22469;48.150;14.004;2022-11-22T06:26:22;96476.28;;;5.33;70.79
3260;BME280;22469;48.150;14.004;2022-11-22T06:28:50;96474.81;;;5.27;70.35
3260;BME280;22469;48.150;14.004;2022-11-22T06:31:25;96480.72;;;5.28;70.34
3260;BME280;22469;48.150;14.004;2022-11-22T06:33:55;96483.97;;;5.31;70.86
3260;BME280;22469;48.150;14.004;2022-11-22T06:36:27;96484.63;;;5.36;70.87
3260;BME280;22469;48.150;14.004;2022-11-22T06:38:56;96481.94;;;5.41;70.87
3260;BME280;22469;48.150;14.004;2022-11-22T06:41:26;96477.69;;;5.41;70.66
3260;BME280;22469;48.150;14.004;2022-11-22T06:43:54;96478.50;;;5.42;70.66
3260;BME280;22469;48.150;14.004;2022-11-22T06:46:25;96477.63;;;5.43;70.25
3260;BME280;22469;48.150;14.004;2022-11-22T06:48:53;96473.44;;;5.42;70.30
3260;BME280;22469;48.150;14.004;2022-11-22T06:51:25;96469.84;;;5.47;70.22
3260;BME280;22469;48.150;14.004;2022-11-22T06:53:55;96476.56;;;5.49;70.71
3260;BME280;22469;48.150;14.004;2022-11-22T06:56:29;96484.03;;;5.53;70.50
3260;BME280;22469;48.150;14.004;2022-11-22T06:59:01;96483.97;;;5.55;70.35
3260;BME280;22469;48.150;14.004;2022-11-22T07:01:33;96483.91;;;5.56;70.40
3260;BME280;22469;48.150;14.004;2022-11-22T07:04:01;96488.84;;;5.61;70.21
3260;BME280;22469;48.150;14.004;2022-11-22T07:06:31;96493.75;;;5.65;70.39
3260;BME280;22469;48.150;14.004;2022-11-22T07:09:02;96491.09;;;5.68;70.42
3260;BME280;22469;48.150;14.004;2022-11-22T07:11:31;96474.06;;;5.70;70.53
3260;BME280;22469;48.150;14.004;2022-11-22T07:13:59;96485.81;;;5.75;70.44
3260;BME280;22469;48.150;14.004;2022-11-22T07:16:34;96481.47;;;5.77;70.33
3260;BME280;22469;48.150;14.004;2022-11-22T07:19:03;96492.44;;;5.79;70.39
3260;BME280;22469;48.150;14.004;2022-11-22T07:21:31;96483.91;;;5.80;70.03
3260;BME280;22469;48.150;14.004;2022-11-22T07:23:58;96479.59;;;5.82;70.15
3260;BME280;22469;48.150;14.004;2022-11-22T07:26:26;96478.63;;;5.84;70.26
3260;BME280;22469;48.150;14.004;2022-11-22T07:28:54;96477.69;;;5.87;70.05
3260;BME280;22469;48.150;14.004;2022-11-22T07:31:21;96474.22;;;5.89;70.32
3260;BME280;22469;48.150;14.004;2022-11-22T07:33:48;96473.31;;;5.90;70.37
3260;BME280;22469;48.150;14.004;2022-11-22T07:36:20;96473.31;;;5.90;70.63
3260;BME280;22469;48.150;14.004;2022-11-22T07:38:48;96476.66;;;5.92;70.50
3260;BME280;22469;48.150;14.004;2022-11-22T07:41:17;96475.72;;;5.95;70.91
3260;BME280;22469;48.150;14.004;2022-11-22T07:43:45;96478.13;;;5.98;71.23
3260;BME280;22469;48.150;14.004;2022-11-22T07:46:27;96474.59;;;6.02;70.85
3260;BME280;22469;48.150;14.004;2022-11-22T07:48:58;96476.25;;;6.03;70.70
3260;BME280;22469;48.150;14.004;2022-11-22T07:51:26;96488.78;;;6.08;70.98
3260;BME280;22469;48.150;14.004;2022-11-22T07:53:54;96499.63;;;6.13;70.81
3260;BME280;22469;48.150;14.004;2022-11-22T07:56:22;96497.38;;;6.05;70.78
3260;BME280;22469;48.150;14.004;2022-11-22T07:58:49;96498.66;;;5.93;71.06
3260;BME280;22469;48.150;14.004;2022-11-22T08:01:17;96508.53;;;6.01;71.08
3260;BME280;22469;48.150;14.004;2022-11-22T08:03:45;96511.94;;;6.02;71.08
3260;BME280;22469;48.150;14.004;2022-11-22T08:06:13;96516.75;;;6.09;70.80
3260;BME280;22469;48.150;14.004;2022-11-22T08:08:41;96518.38;;;6.10;70.83
3260;BME280;22469;48.150;14.004;2022-11-22T08:11:09;96512.34;;;6.13;70.82
3260;BME280;22469;48.150;14.004;2022-11-22T08:13:36;96511.34;;;6.17;70.39
3260;BME280;22469;48.150;14.004;2022-11-22T08:16:06;96511.28;;;6.18;70.49
3260;BME280;22469;48.150;14.004;2022-11-22T08:18:36;96505.19;;;6.23;70.30
3260;BME280;22469;48.150;14.004;2022-11-22T08:21:09;96511.81;;;6.27;70.69
3260;BME280;22469;48.150;14.004;2022-11-22T08:23:38;96496.59;;;6.25;70.53
3260;BME280;22469;48.150;14.004;2022-11-22T08:26:08;96506.66;;;6.28;70.41
3260;BME280;22469;48.150;14.004;2022-11-22T08:28:39;96523.63;;;6.29;70.70
3260;BME280;22469;48.150;14.004;2022-11-22T08:31:11;96528.75;;;6.28;71.13
3260;BME280;22469;48.150;14.004;2022-11-22T08:33:40;96531.63;;;6.18;71.04
3260;BME280;22469;48.150;14.004;2022-11-22T08:36:08;96540.34;;;6.13;70.97
3260;BME280;22469;48.150;14.004;2022-11-22T08:38:35;96547.75;;;6.19;71.33
3260;BME280;22469;48.150;14.004;2022-11-22T08:41:05;96541.78;;;6.20;70.70
3260;BME280;22469;48.150;14.004;2022-11-22T08:43:33;96551.06;;;6.21;70.76
3260;BME280;22469;48.150;14.004;2022-11-22T08:46:00;96567.00;;;6.26;70.77
3260;BME280;22469;48.150;14.004;2022-11-22T08:48:29;96575.06;;;6.15;71.26
3260;BME280;22469;48.150;14.004;2022-11-22T08:51:03;96576.75;;;6.15;71.26
3260;BME280;22469;48.150;14.004;2022-11-22T08:53:34;96579.53;;;6.09;71.80
3260;BME280;22469;48.150;14.004;2022-11-22T08:56:03;96580.19;;;6.14;71.68
3260;BME280;22469;48.150;14.004;2022-11-22T08:58:32;96583.03;;;6.06;71.62
3260;BME280;22469;48.150;14.004;2022-11-22T09:01:07;96590.53;;;6.09;71.57
3260;BME280;22469;48.150;14.004;2022-11-22T09:03:40;96589.72;;;6.09;71.08
3260;BME280;22469;48.150;14.004;2022-11-22T09:06:12;96593.69;;;6.16;71.34
3260;BME280;22469;48.150;14.004;2022-11-22T09:09:02;96594.44;;;6.18;71.42
3260;BME280;22469;48.150;14.004;2022-11-22T09:11:49;96590.38;;;6.14;71.25
3260;BME280;22469;48.150;14.004;2022-11-22T09:14:16;96590.25;;;6.17;71.34
3260;BME280;22469;48.150;14.004;2022-11-22T09:16:43;96595.34;;;6.17;71.07
3260;BME280;22469;48.150;14.004;2022-11-22T09:19:10;96599.09;;;6.30;71.53
3260;BME280;22469;48.150;14.004;2022-11-22T09:21:37;96595.41;;;6.37;71.47
3260;BME280;22469;48.150;14.004;2022-11-22T09:24:04;96597.66;;;6.45;71.21
3260;BME280;22469;48.150;14.004;2022-11-22T09:26:31;96592.22;;;6.54;71.39
3260;BME280;22469;48.150;14.004;2022-11-22T09:28:58;96587.13;;;6.54;71.51
3260;BME280;22469;48.150;14.004;2022-11-22T09:31:25;96593.06;;;6.55;70.75
3260;BME280;22469;48.150;14.004;2022-11-22T09:33:52;96591.28;;;6.57;71.12
3260;BME280;22469;48.150;14.004;2022-11-22T09:36:24;96597.84;;;6.62;71.27
3260;BME280;22469;48.150;14.004;2022-11-22T09:38:54;96591.91;;;6.62;70.76
3260;BME280;22469;48.150;14.004;2022-11-22T09:52:55;96593.75;;;6.80;70.66
3260;BME280;22469;48.150;14.004;2022-11-22T09:55:55;96593.38;;;6.89;70.97
3260;BME280;22469;48.150;14.004;2022-11-22T09:58:35;96601.69;;;6.95;70.58
3260;BME280;22469;48.150;14.004;2022-11-22T10:01:42;96603.25;;;6.97;70.75
3260;BME280;22469;48.150;14.004;2022-11-22T10:04:20;96599.75;;;7.00;70.74
3260;BME280;22469;48.150;14.004;2022-11-22T10:07:18;96603.72;;;7.07;70.74
3260;BME280;22469;48.150;14.004;2022-11-22T10:10:03;96595.91;;;7.11;70.69
3260;BME280;22469;48.150;14.004;2022-11-22T10:12:42;96606.38;;;7.04;70.48
3260;BME280;22469;48.150;14.004;2022-11-22T10:18:13;96609.59;;;7.09;70.38
3260;BME280;22469;48.150;14.004;2022-11-22T10:20:44;96612.88;;;7.11;70.25
3260;BME280;22469;48.150;14.004;2022-11-22T10:23:20;96603.44;;;7.15;70.25
3260;BME280;22469;48.150;14.004;2022-11-22T10:25:59;96611.00;;;7.16;69.89
3260;BME280;22469;48.150;14.004;2022-11-22T10:41:56;96594.09;;;7.34;69.68
3260;BME280;22469;48.150;14.004;2022-11-22T10:56:20;96582.88;;;7.38;69.74
3260;BME280;22469;48.150;14.004;2022-11-22T11:04:59;96579.56;;;7.56;70.00
3260;BME280;22469;48.150;14.004;2022-11-22T11:07:30;96570.94;;;7.59;70.13
3260;BME280;22469;48.150;14.004;2022-11-22T11:10:02;96564.84;;;7.62;69.74
3260;BME280;22469;48.150;14.004;2022-11-22T11:12:57;96565.50;;;7.67;69.15
3260;BME280;22469;48.150;14.004;2022-11-22T11:15:41;96568.06;;;7.67;68.91
3260;BME280;22469;48.150;14.004;2022-11-22T11:18:21;96563.78;;;7.67;68.78
3260;BME280;22469;48.150;14.004;2022-11-22T11:20:56;96561.28;;;7.66;69.04
3260;BME280;22469;48.150;14.004;2022-11-22T11:23:23;96564.47;;;7.71;68.26
3260;BME280;22469;48.150;14.004;2022-11-22T11:25:50;96565.38;;;7.70;68.34
3260;BME280;22469;48.150;14.004;2022-11-22T11:28:25;96559.22;;;7.74;68.19
3260;BME280;22469;48.150;14.004;2022-11-22T11:31:08;96563.69;;;7.69;68.08
3260;BME280;22469;48.150;14.004;2022-11-22T11:33:38;96560.28;;;7.70;68.53
3260;BME280;22469;48.150;14.004;2022-11-22T11:36:23;96566.94;;;7.72;68.75
3260;BME280;22469;48.150;14.004;2022-11-22T11:38:55;96565.16;;;7.74;68.44
3260;BME280;22469;48.150;14.004;2022-11-22T11:44:02;96568.53;;;7.75;68.25
3260;BME280;22469;48.150;14.004;2022-11-22T11:49:14;96574.81;;;7.68;68.39
3260;BME280;22469;48.150;14.004;2022-11-22T11:54:44;96578.13;;;7.70;68.35
3260;BME280;22469;48.150;14.004;2022-11-22T11:57:28;96579.69;;;7.72;67.74
3260;BME280;22469;48.150;14.004;2022-11-22T11:59:59;96583.09;;;7.73;67.81
3260;BME280;22469;48.150;14.004;2022-11-22T12:02:38;96577.91;;;7.74;68.58
3260;BME280;22469;48.150;14.004;2022-11-22T12:07:44;96574.31;;;7.78;68.71
3260;BME280;22469;48.150;14.004;2022-11-22T12:16:15;96561.38;;;7.83;69.44
3260;BME280;22469;48.150;14.004;2022-11-22T12:19:27;96562.22;;;7.83;69.38
3260;BME280;22469;48.150;14.004;2022-11-22T12:22:27;96562.22;;;7.83;69.80
3260;BME280;22469;48.150;14.004;2022-11-22T12:28:02;96569.66;;;7.88;69.66
3260;BME280;22469;48.150;14.004;2022-11-22T12:31:51;96569.66;;;7.88;69.25
3260;BME280;22469;48.150;14.004;2022-11-22T12:34:30;96569.56;;;7.90;69.11
3260;BME280;22469;48.150;14.004;2022-11-22T12:39:36;96556.88;;;7.88;69.49
3260;BME280;22469;48.150;14.004;2022-11-22T12:42:30;96558.47;;;7.91;69.30
3260;BME280;22469;48.150;14.004;2022-11-22T12:45:33;96558.47;;;7.91;69.21
3260;BME280;22469;48.150;14.004;2022-11-22T12:48:08;96565.25;;;7.92;69.19
3260;BME280;22469;48.150;14.004;2022-11-22T12:50:47;96573.59;;;7.95;69.44
3260;BME280;22469;48.150;14.004;2022-11-22T12:53:22;96571.81;;;7.97;69.38
3260;BME280;22469;48.150;14.004;2022-11-22T12:56:03;96584.44;;;8.00;69.86
3260;BME280;22469;48.150;14.004;2022-11-22T13:01:36;96588.69;;;8.00;69.37
3260;BME280;22469;48.150;14.004;2022-11-22T13:07:00;96584.69;;;7.94;69.21
3260;BME280;22469;48.150;14.004;2022-11-22T13:09:37;96598.28;;;7.95;69.58
3260;BME280;22469;48.150;14.004;2022-11-22T13:12:11;96590.50;;;7.98;69.64
3260;BME280;22469;48.150;14.004;2022-11-22T13:17:14;96603.25;;;7.98;69.25
3260;BME280;22469;48.150;14.004;2022-11-22T13:19:59;96597.34;;;7.97;69.68
3260;BME280;22469;48.150;14.004;2022-11-22T13:28:33;96595.59;;;7.98;69.51
3260;BME280;22469;48.150;14.004;2022-11-22T13:38:59;96584.16;;;7.88;69.29
3260;BME280;22469;48.150;14.004;2022-11-22T13:41:37;96578.09;;;7.90;69.42
3260;BME280;22469;48.150;14.004;2022-11-22T13:49:50;96580.69;;;7.89;69.38
3260;BME280;22469;48.150;14.004;2022-11-22T13:57:29;96582.06;;;7.77;68.94
3260;BME280;22469;48.150;14.004;2022-11-22T14:16:56;96586.44;;;7.94;69.79
3260;BME280;22469;48.150;14.004;2022-11-22T14:28:10;96601.34;;;7.64;70.80
3260;BME280;22469;48.150;14.004;2022-11-22T14:30:52;96597.84;;;7.66;70.92
3260;BME280;22469;48.150;14.004;2022-11-22T14:33:20;96598.59;;;7.68;70.95
3260;BME280;22469;48.150;14.004;2022-11-22T14:38:38;96601.91;;;7.70;71.12
3260;BME280;22469;48.150;14.004;2022-11-22T14:44:07;96597.19;;;7.61;71.29
3260;BME280;22469;48.150;14.004;2022-11-22T14:46:51;96601.63;;;7.57;71.23
3260;BME280;22469;48.150;14.004;2022-11-22T14:49:42;96593.91;;;7.59;71.29
3260;BME280;22469;48.150;14.004;2022-11-22T14:52:24;96597.34;;;7.58;71.43
3260;BME280;22469;48.150;14.004;2022-11-22T14:54:56;96587.94;;;7.40;71.87
3260;BME280;22469;48.150;14.004;2022-11-22T14:57:28;96590.97;;;7.48;71.45
3260;BME280;22469;48.150;14.004;2022-11-22T15:05:55;96595.03;;;7.52;71.97
3260;BME280;22469;48.150;14.004;2022-11-22T15:15:36;96600.81;;;7.76;71.37
3260;BME280;22469;48.150;14.004;2022-11-22T15:18:31;96608.41;;;7.77;71.17
3260;BME280;22469;48.150;14.004;2022-11-22T15:21:28;96617.59;;;7.81;70.99
3260;BME280;22469;48.150;14.004;2022-11-22T15:24:25;96622.56;;;7.84;70.95
3260;BME280;22469;48.150;14.004;2022-11-22T15:27:30;96635.25;;;7.86;71.04
3260;BME280;22469;48.150;14.004;2022-11-22T15:30:21;96646.22;;;7.88;70.72
3260;BME280;22469;48.150;14.004;2022-11-22T15:33:20;96643.75;;;7.87;70.60
3260;BME280;22469;48.150;14.004;2022-11-22T15:39:26;96650.31;;;7.92;70.69
3260;BME280;22469;48.150;14.004;2022-11-22T15:42:16;96659.69;;;7.92;70.50
3260;BME280;22469;48.150;14.004;2022-11-22T15:45:05;96657.81;;;7.95;70.52
3260;BME280;22469;48.150;14.004;2022-11-22T15:48:04;96668.72;;;7.99;70.28
3260;BME280;22469;48.150;14.004;2022-11-22T15:57:02;96676.22;;;8.03;70.68
3260;BME280;22469;48.150;14.004;2022-11-22T15:59:52;96671.16;;;8.02;70.97
3260;BME280;22469;48.150;14.004;2022-11-22T16:02:23;96679.59;;;8.04;70.57
3260;BME280;22469;48.150;14.004;2022-11-22T16:04:58;96685.38;;;8.07;71.01
3260;BME280;22469;48.150;14.004;2022-11-22T16:07:48;96676.00;;;8.08;70.88
3260;BME280;22469;48.150;14.004;2022-11-22T16:10:22;96681.84;;;8.10;70.70
3260;BME280;22469;48.150;14.004;2022-11-22T16:12:51;96679.38;;;8.08;70.98
3260;BME280;22469;48.150;14.004;2022-11-22T16:15:22;96675.91;;;8.10;70.58
3260;BME280;22469;48.150;14.004;2022-11-22T16:18:05;96674.97;;;8.12;70.77